createdAt,value
2018-05-18T18:25:14.413Z,55.70
2018-05-18T18:27:43.936Z,55.70
2018-05-18T18:30:12.532Z,55.70
2018-05-18T18:32:41.098Z,55.80
2018-05-18T18:35:10.265Z,55.70
2018-05-18T18:37:38.802Z,55.60
2018-05-18T18:40:07.337Z,55.60
2018-05-18T18:42:35.889Z,55.50
2018-05-18T18:45:05.022Z,55.50
2018-05-18T18:47:34.368Z,55.40
2018-05-18T18:50:02.933Z,55.30
2018-05-18T18:52:32.930Z,55.10
2018-05-18T18:55:03.323Z,55.10
2018-05-18T18:57:31.902Z,55.10
2018-05-18T19:00:01.019Z,55.10
2018-05-18T19:02:30.632Z,54.80
2018-05-18T19:04:59.169Z,55.10
2018-05-18T19:07:29.363Z,55.00
2018-05-18T19:09:58.029Z,55.10
2018-05-18T19:12:29.038Z,55.00
2018-05-18T19:14:57.647Z,55.00
2018-05-18T19:17:28.115Z,55.00
2018-05-18T19:19:57.864Z,54.90
2018-05-18T19:22:26.533Z,55.00
2018-05-18T19:24:56.377Z,55.60
2018-05-18T19:27:25.859Z,55.40
2018-05-18T19:29:54.385Z,54.90
2018-05-18T19:32:29.095Z,54.90
2018-05-18T19:34:58.547Z,54.90
2018-05-18T19:37:28.013Z,55.00
2018-05-18T19:39:56.972Z,54.90
2018-05-18T19:42:25.939Z,54.90
2018-05-18T19:44:54.575Z,54.80
2018-05-18T19:47:23.567Z,54.90
2018-05-18T19:49:53.184Z,54.80
2018-05-18T19:52:23.768Z,54.80
2018-05-18T19:54:52.323Z,54.80
2018-05-18T19:57:23.255Z,54.70
2018-05-18T19:59:53.425Z,54.70
2018-05-18T20:02:24.025Z,54.70
2018-05-18T20:04:52.678Z,54.70
2018-05-18T20:07:23.110Z,54.70
2018-05-18T20:09:51.731Z,54.70
2018-05-18T20:12:21.404Z,54.60
2018-05-18T20:14:49.913Z,54.70
2018-05-18T20:17:18.595Z,54.60
2018-05-18T20:19:47.332Z,54.60
2018-05-18T20:22:17.371Z,54.60
2018-05-18T20:24:49.762Z,54.60
2018-05-18T20:27:18.385Z,54.60
2018-05-18T20:29:47.297Z,55.20
2018-05-18T20:32:16.836Z,54.50
2018-05-18T20:34:49.767Z,54.50
2018-05-18T20:37:18.477Z,54.50
2018-05-18T20:39:48.197Z,54.20
2018-05-18T20:42:17.991Z,54.40
2018-05-18T20:44:47.314Z,54.40
2018-05-18T20:47:17.253Z,54.40
2018-05-18T20:49:46.067Z,54.10
2018-05-18T20:52:14.757Z,54.30
2018-05-18T20:54:43.516Z,54.30
2018-05-18T20:57:13.521Z,54.40
2018-05-18T20:59:43.312Z,54.30
2018-05-18T21:02:12.028Z,54.30
2018-05-18T21:04:40.635Z,54.30
2018-05-18T21:07:09.282Z,54.40
2018-05-18T21:09:38.235Z,54.30
2018-05-18T21:12:06.913Z,54.30
2018-05-18T21:14:35.586Z,54.30
2018-05-18T21:17:04.265Z,54.30
2018-05-18T21:19:34.874Z,54.20
2018-05-18T21:22:04.239Z,54.20
2018-05-18T21:24:34.135Z,54.20
2018-05-18T21:27:02.974Z,54.00
2018-05-18T21:29:33.516Z,54.00
2018-05-18T21:32:02.210Z,54.00
2018-05-18T21:34:31.452Z,54.00
2018-05-18T21:37:06.954Z,54.00
2018-05-18T21:39:35.631Z,53.90
2018-05-18T21:42:05.414Z,53.90
2018-05-18T21:44:34.776Z,53.90
2018-05-18T21:47:04.994Z,53.80
2018-05-18T21:49:35.364Z,54.20
2018-05-18T21:52:08.697Z,53.70
2018-05-18T21:54:37.992Z,53.80
2018-05-18T21:57:07.424Z,54.30
2018-05-18T21:59:36.077Z,53.60
2018-05-18T22:02:05.718Z,53.60
2018-05-18T22:04:34.694Z,53.60
2018-05-18T22:07:04.175Z,53.60
2018-05-18T22:09:33.694Z,53.40
2018-05-18T22:12:04.121Z,53.40
2018-05-18T22:14:33.845Z,53.30
2018-05-18T22:17:04.302Z,53.40
2018-05-18T22:19:34.399Z,53.30
2018-05-18T22:22:03.457Z,53.20
2018-05-18T22:24:32.522Z,53.20
2018-05-18T22:27:01.117Z,53.30
2018-05-18T22:29:29.660Z,53.20
2018-05-18T22:31:58.184Z,53.20
2018-05-18T22:34:28.035Z,53.10
2018-05-18T22:36:57.294Z,53.10
2018-05-18T22:39:26.573Z,53.00
2018-05-18T22:41:55.086Z,53.00
2018-05-18T22:44:23.895Z,53.00
2018-05-18T22:46:53.289Z,52.90
2018-05-18T22:49:22.702Z,52.90
2018-05-18T22:51:51.317Z,52.90
2018-05-18T22:54:20.010Z,52.80
2018-05-18T22:56:48.541Z,52.70
2018-05-18T22:59:18.530Z,52.70
2018-05-18T23:01:47.344Z,52.70
2018-05-18T23:04:15.909Z,52.70
2018-05-18T23:06:45.449Z,52.60
2018-05-18T23:09:15.916Z,52.60
2018-05-18T23:11:45.942Z,52.60
2018-05-18T23:14:15.074Z,52.60
2018-05-18T23:16:44.969Z,52.60
2018-05-18T23:19:15.365Z,52.50
2018-05-18T23:21:44.558Z,52.50
2018-05-18T23:24:13.980Z,52.40
2018-05-18T23:26:42.612Z,52.40
2018-05-18T23:29:12.672Z,52.30
2018-05-18T23:31:41.880Z,52.30
2018-05-18T23:34:10.757Z,52.30
2018-05-18T23:36:39.788Z,52.20
2018-05-18T23:39:08.337Z,52.30
2018-05-18T23:41:37.541Z,52.20
2018-05-18T23:44:06.340Z,52.30
2018-05-18T23:46:34.844Z,52.20
2018-05-18T23:49:03.401Z,52.50
2018-05-18T23:51:31.905Z,51.70
2018-05-18T23:54:00.887Z,52.10
2018-05-18T23:56:30.375Z,52.10
2018-05-18T23:58:58.854Z,52.10
